createdAt,value
2023-05-10T00:02:09.703Z,11.50
2023-05-10T00:04:36.444Z,11.50
2023-05-10T00:07:03.298Z,11.50
2023-05-10T00:09:30.442Z,11.50
2023-05-10T00:11:59.399Z,11.50
2023-05-10T00:14:26.162Z,11.50
2023-05-10T00:16:53.010Z,11.50
2023-05-10T00:19:19.857Z,11.50
2023-05-10T00:21:46.676Z,11.50
2023-05-10T00:24:13.373Z,11.50
2023-05-10T00:26:40.495Z,11.50
2023-05-10T00:29:07.194Z,11.50
2023-05-10T00:31:34.120Z,11.50
2023-05-10T00:34:00.856Z,11.50
2023-05-10T00:36:28.721Z,11.50
2023-05-10T00:38:55.568Z,11.50
2023-05-10T00:41:22.945Z,11.50
2023-05-10T00:43:49.794Z,11.50
2023-05-10T00:46:16.579Z,11.50
2023-05-10T00:48:43.985Z,11.60
2023-05-10T00:51:10.658Z,11.60
2023-05-10T00:53:38.046Z,11.60
2023-05-10T00:56:04.790Z,11.60
2023-05-10T00:58:32.029Z,11.60
2023-05-10T01:00:59.135Z,11.60
2023-05-10T01:03:26.454Z,11.60
2023-05-10T01:05:53.291Z,11.60
2023-05-10T01:08:20.013Z,11.70
2023-05-10T01:10:46.774Z,11.70
2023-05-10T01:13:13.507Z,11.70
2023-05-10T01:15:41.144Z,11.70
2023-05-10T01:18:07.919Z,11.70
2023-05-10T01:20:37.669Z,11.70
2023-05-10T01:23:04.363Z,11.70
2023-05-10T01:25:49.539Z,11.70
2023-05-10T01:28:16.144Z,11.80
2023-05-10T01:31:07.342Z,11.80
2023-05-10T01:33:40.630Z,11.80
2023-05-10T01:36:14.991Z,11.80
2023-05-10T01:38:51.768Z,11.90
2023-05-10T01:41:19.647Z,11.80
2023-05-10T01:43:51.771Z,11.90
2023-05-10T01:46:19.264Z,11.90
2023-05-10T01:48:49.587Z,11.90
2023-05-10T01:51:16.987Z,11.90
2023-05-10T01:53:43.699Z,11.90
2023-05-10T01:56:10.420Z,11.90
2023-05-10T01:58:37.026Z,12.00
2023-05-10T02:01:04.340Z,12.00
2023-05-10T02:03:31.135Z,12.00
2023-05-10T02:05:57.820Z,11.90
2023-05-10T02:08:24.439Z,11.90
2023-05-10T02:10:51.853Z,12.00
2023-05-10T02:13:19.189Z,11.90
2023-05-10T02:15:48.248Z,11.90
2023-05-10T02:18:16.469Z,11.90
2023-05-10T02:20:43.346Z,11.80
2023-05-10T02:23:10.090Z,11.80
2023-05-10T02:25:36.774Z,11.80
2023-05-10T02:28:04.855Z,11.80
2023-05-10T02:30:32.660Z,11.80
2023-05-10T02:32:59.853Z,11.70
2023-05-10T02:35:26.721Z,11.70
2023-05-10T02:37:53.493Z,11.70
2023-05-10T02:40:20.232Z,11.70
2023-05-10T02:42:47.412Z,11.70
2023-05-10T02:45:15.963Z,11.70
2023-05-10T02:47:42.683Z,11.70
2023-05-10T02:50:09.663Z,11.60
2023-05-10T02:52:49.134Z,11.60
2023-05-10T02:55:16.980Z,11.60
2023-05-10T02:57:52.033Z,11.60
2023-05-10T03:00:18.982Z,11.60
2023-05-10T03:02:45.812Z,11.60
2023-05-10T03:05:12.464Z,11.60
2023-05-10T03:07:39.100Z,11.60
2023-05-10T03:10:06.317Z,11.50
2023-05-10T03:12:54.262Z,11.50
2023-05-10T03:15:33.222Z,11.50
2023-05-10T03:18:04.476Z,11.50
2023-05-10T03:20:32.876Z,11.50
2023-05-10T03:23:08.575Z,11.50
2023-05-10T03:25:35.340Z,11.50
2023-05-10T03:28:02.291Z,11.50
2023-05-10T03:30:28.985Z,11.50
2023-05-10T03:32:55.697Z,11.50
2023-05-10T03:35:22.379Z,11.50
2023-05-10T03:37:49.080Z,11.50
2023-05-10T03:40:16.608Z,11.50
2023-05-10T03:42:43.478Z,11.50
2023-05-10T03:45:10.668Z,11.50
2023-05-10T03:47:37.477Z,11.50
2023-05-10T03:50:04.315Z,11.50
2023-05-10T03:52:30.988Z,11.50
2023-05-10T03:54:57.651Z,11.50
2023-05-10T03:57:25.182Z,11.40
2023-05-10T03:59:52.193Z,11.40
2023-05-10T04:02:18.889Z,11.40
2023-05-10T04:04:45.902Z,11.40
2023-05-10T04:07:12.582Z,11.40
2023-05-10T04:09:39.220Z,11.40
2023-05-10T04:12:07.503Z,11.30
2023-05-10T04:14:35.085Z,11.30
2023-05-10T04:17:02.145Z,11.30
2023-05-10T04:19:32.306Z,11.30
2023-05-10T04:21:59.120Z,11.20
2023-05-10T04:24:25.947Z,11.20
2023-05-10T04:26:52.865Z,11.20
2023-05-10T04:29:19.635Z,11.20
2023-05-10T04:31:46.322Z,11.20
2023-05-10T04:34:13.000Z,11.20
2023-05-10T04:36:39.615Z,11.20
2023-05-10T04:39:06.348Z,11.10
2023-05-10T04:41:33.043Z,11.10
2023-05-10T04:43:59.844Z,11.10
2023-05-10T04:46:26.936Z,11.10
2023-05-10T04:48:53.750Z,11.00
2023-05-10T04:51:23.678Z,11.00
2023-05-10T04:54:01.425Z,11.00
2023-05-10T04:56:32.763Z,11.00
2023-05-10T04:58:59.536Z,11.00
2023-05-10T05:01:26.248Z,11.00
2023-05-10T05:03:54.088Z,11.00
2023-05-10T05:06:22.150Z,11.00
2023-05-10T05:08:50.739Z,11.00
2023-05-10T05:11:17.942Z,10.90
2023-05-10T05:13:44.778Z,10.90
2023-05-10T05:16:12.586Z,10.90
2023-05-10T05:18:39.588Z,10.90
2023-05-10T05:21:18.770Z,10.90
2023-05-10T05:23:45.469Z,10.90
2023-05-10T05:26:12.236Z,10.90
2023-05-10T05:28:39.283Z,10.90
2023-05-10T05:31:06.729Z,11.00
2023-05-10T05:33:34.321Z,11.00
2023-05-10T05:36:07.300Z,11.00
2023-05-10T05:38:34.362Z,11.00
2023-05-10T05:41:01.017Z,11.10
2023-05-10T05:43:27.869Z,11.10
2023-05-10T05:45:59.249Z,11.10
2023-05-10T05:48:26.007Z,11.20
2023-05-10T05:50:55.979Z,11.20
2023-05-10T05:53:22.724Z,11.20
2023-05-10T05:55:54.223Z,11.30
2023-05-10T05:58:21.611Z,11.30
2023-05-10T06:00:48.435Z,11.40
2023-05-10T06:03:15.539Z,11.30
2023-05-10T06:05:42.579Z,11.40
2023-05-10T06:08:09.477Z,11.40
2023-05-10T06:10:36.222Z,11.40
2023-05-10T06:13:03.067Z,11.40
2023-05-10T06:15:29.873Z,11.50
2023-05-10T06:17:56.630Z,11.60
2023-05-10T06:20:23.358Z,11.60
2023-05-10T06:22:50.050Z,11.70
2023-05-10T06:25:19.306Z,11.60
2023-05-10T06:27:49.800Z,11.60
2023-05-10T06:30:17.820Z,11.70
2023-05-10T06:32:46.204Z,11.70
2023-05-10T06:35:13.145Z,11.80
2023-05-10T06:37:40.225Z,11.90
2023-05-10T06:40:07.314Z,12.00
2023-05-10T06:42:34.267Z,12.00
2023-05-10T06:45:01.053Z,12.00
2023-05-10T06:47:27.736Z,12.10
2023-05-10T06:49:54.701Z,12.00
2023-05-10T06:52:21.474Z,12.00
2023-05-10T06:54:48.241Z,12.00
2023-05-10T06:57:27.546Z,12.00
2023-05-10T06:59:59.423Z,12.10
2023-05-10T07:02:26.360Z,12.10
2023-05-10T07:04:53.529Z,12.10
2023-05-10T07:07:20.409Z,12.10
2023-05-10T07:09:47.257Z,12.10
2023-05-10T07:12:15.427Z,12.10
2023-05-10T07:14:43.112Z,12.20
2023-05-10T07:17:10.218Z,12.30
2023-05-10T07:19:37.156Z,12.40
2023-05-10T07:22:04.208Z,12.40
2023-05-10T07:24:32.332Z,12.50
2023-05-10T07:26:59.335Z,12.50
2023-05-10T07:29:26.257Z,12.50
2023-05-10T07:31:53.204Z,12.60
2023-05-10T07:34:20.025Z,12.60
2023-05-10T07:36:46.924Z,12.60
2023-05-10T07:39:18.604Z,12.60
2023-05-10T07:41:53.024Z,12.60
2023-05-10T07:44:21.281Z,12.70
2023-05-10T07:46:48.701Z,12.70
2023-05-10T07:49:15.454Z,12.80
2023-05-10T07:51:43.361Z,12.90
2023-05-10T07:54:10.027Z,13.00
2023-05-10T07:56:37.223Z,13.00
2023-05-10T07:59:04.996Z,13.00
2023-05-10T08:01:32.387Z,13.00
2023-05-10T08:03:59.131Z,13.00
2023-05-10T08:06:28.204Z,13.10
2023-05-10T08:08:55.160Z,13.20
2023-05-10T08:11:22.273Z,13.20
2023-05-10T08:13:49.313Z,13.30
2023-05-10T08:16:16.859Z,13.40
2023-05-10T08:18:44.373Z,13.50
2023-05-10T08:21:12.285Z,13.50
2023-05-10T08:23:38.995Z,13.60
2023-05-10T08:26:05.712Z,13.80
2023-05-10T08:28:32.470Z,13.90
2023-05-10T08:30:59.250Z,13.90
2023-05-10T08:33:26.077Z,14.00
2023-05-10T08:35:53.200Z,14.10
2023-05-10T08:38:19.876Z,14.20
2023-05-10T08:40:46.733Z,14.20
2023-05-10T08:43:13.723Z,14.30
2023-05-10T08:45:41.182Z,14.40
2023-05-10T08:48:08.408Z,14.40
2023-05-10T08:50:38.693Z,14.50
2023-05-10T08:53:05.941Z,14.60
2023-05-10T08:55:33.876Z,14.60
2023-05-10T08:58:01.031Z,14.60
2023-05-10T09:00:28.075Z,14.70
2023-05-10T09:02:54.743Z,14.90
2023-05-10T09:05:21.510Z,15.00
2023-05-10T09:07:48.193Z,15.00
2023-05-10T09:10:14.871Z,15.10
2023-05-10T09:12:41.572Z,15.20
2023-05-10T09:15:08.339Z,15.20
2023-05-10T09:17:35.159Z,15.30
2023-05-10T09:20:02.316Z,15.30
2023-05-10T09:22:29.020Z,15.40
2023-05-10T09:25:16.666Z,15.30
2023-05-10T09:27:47.316Z,15.40
2023-05-10T09:30:16.712Z,15.40
2023-05-10T09:32:46.728Z,15.50
2023-05-10T09:35:17.473Z,15.60
2023-05-10T09:37:45.155Z,15.70
2023-05-10T09:40:16.262Z,15.80
2023-05-10T09:42:56.651Z,15.80
2023-05-10T09:45:23.950Z,15.70
2023-05-10T09:47:50.831Z,15.80
2023-05-10T09:50:17.857Z,15.80
2023-05-10T09:52:54.635Z,15.90
2023-05-10T09:55:24.965Z,16.00
2023-05-10T09:57:59.661Z,16.10
2023-05-10T10:00:27.222Z,16.10
2023-05-10T10:03:00.812Z,16.10
2023-05-10T10:05:31.169Z,16.10
2023-05-10T10:07:58.102Z,16.20
2023-05-10T10:10:28.516Z,16.30
2023-05-10T10:12:56.019Z,16.40
2023-05-10T10:15:23.524Z,16.50
2023-05-10T10:17:50.818Z,16.40
2023-05-10T10:20:18.226Z,16.50
2023-05-10T10:22:45.622Z,16.60
2023-05-10T10:25:19.361Z,16.60
2023-05-10T10:27:50.231Z,16.70
2023-05-10T10:30:23.691Z,16.70
2023-05-10T10:33:10.240Z,16.80
2023-05-10T10:35:44.316Z,16.90
2023-05-10T10:38:11.030Z,17.10
2023-05-10T10:40:37.796Z,17.40
2023-05-10T10:43:23.005Z,17.30
2023-05-10T10:46:09.621Z,17.20
2023-05-10T10:48:36.360Z,17.40
2023-05-10T10:51:03.147Z,17.70
2023-05-10T10:53:30.014Z,17.80
2023-05-10T10:56:08.187Z,17.80
2023-05-10T10:58:35.046Z,17.80
2023-05-10T11:01:17.944Z,17.80
2023-05-10T11:04:00.800Z,17.70
2023-05-10T11:06:34.601Z,18.00
2023-05-10T11:09:11.335Z,18.20
2023-05-10T11:11:49.530Z,18.10
2023-05-10T11:14:16.165Z,17.90
2023-05-10T11:16:44.119Z,18.30
2023-05-10T11:19:14.664Z,18.60
2023-05-10T11:21:51.579Z,18.80
2023-05-10T11:24:23.272Z,19.00
2023-05-10T11:26:53.241Z,19.20
2023-05-10T11:29:20.959Z,19.20
2023-05-10T11:31:48.375Z,19.00
2023-05-10T11:34:44.458Z,19.00
2023-05-10T11:37:11.490Z,19.50
2023-05-10T11:39:38.470Z,19.90
2023-05-10T11:42:05.161Z,20.00
2023-05-10T11:44:34.963Z,19.60
2023-05-10T11:47:01.844Z,19.60
2023-05-10T11:49:28.545Z,19.80
2023-05-10T11:52:04.556Z,20.10
2023-05-10T11:54:32.014Z,20.40
2023-05-10T11:56:58.745Z,20.80
2023-05-10T11:59:25.593Z,21.30
2023-05-10T12:01:52.215Z,21.00
2023-05-10T12:04:19.041Z,21.20
2023-05-10T12:06:47.537Z,21.70
2023-05-10T12:09:15.245Z,22.40
2023-05-10T12:11:44.294Z,22.70
2023-05-10T12:14:11.729Z,22.40
2023-05-10T12:16:38.623Z,22.10
2023-05-10T12:19:06.534Z,22.10
2023-05-10T12:21:33.395Z,21.80
2023-05-10T12:24:01.215Z,21.50
2023-05-10T12:26:28.881Z,21.10
2023-05-10T12:28:55.596Z,20.70
2023-05-10T12:31:22.394Z,20.30
2023-05-10T12:33:50.292Z,20.10
2023-05-10T12:36:17.499Z,20.00
2023-05-10T12:38:49.107Z,20.10
2023-05-10T12:41:16.559Z,20.40
2023-05-10T12:43:43.405Z,20.40
2023-05-10T12:46:10.524Z,20.40
2023-05-10T12:48:37.470Z,20.40
2023-05-10T12:51:04.532Z,20.60
2023-05-10T12:53:31.422Z,20.70
2023-05-10T12:55:58.343Z,20.40
2023-05-10T12:58:35.012Z,20.20
2023-05-10T13:01:03.146Z,19.90
2023-05-10T13:03:30.262Z,19.80
2023-05-10T13:05:57.042Z,19.90
2023-05-10T13:08:23.751Z,20.10
2023-05-10T13:10:51.202Z,20.40
2023-05-10T13:13:18.791Z,20.60
2023-05-10T13:15:45.502Z,20.80
2023-05-10T13:18:12.886Z,20.80
2023-05-10T13:20:39.642Z,20.80
2023-05-10T13:23:06.376Z,20.80
2023-05-10T13:25:33.216Z,21.70
2023-05-10T13:28:00.037Z,22.20
2023-05-10T13:30:26.918Z,22.10
2023-05-10T13:32:53.641Z,21.80
2023-05-10T13:35:20.414Z,21.40
2023-05-10T13:37:47.027Z,21.10
2023-05-10T13:40:14.647Z,20.90
2023-05-10T13:42:41.922Z,20.70
2023-05-10T13:45:08.637Z,20.60
2023-05-10T13:47:35.413Z,20.50
2023-05-10T13:50:02.059Z,20.60
2023-05-10T13:52:28.810Z,20.70
2023-05-10T13:54:58.569Z,20.60
2023-05-10T13:57:26.020Z,20.30
2023-05-10T13:59:53.645Z,19.60
2023-05-10T14:02:21.199Z,18.90
2023-05-10T14:04:48.327Z,18.40
2023-05-10T14:07:15.202Z,17.90
2023-05-10T14:09:41.807Z,17.60
2023-05-10T14:12:08.628Z,17.20
2023-05-10T14:14:35.664Z,16.90
2023-05-10T14:17:02.407Z,16.50
2023-05-10T14:19:32.055Z,16.20
2023-05-10T14:21:59.147Z,15.90
2023-05-10T14:24:25.968Z,15.70
2023-05-10T14:26:54.784Z,15.70
2023-05-10T14:29:21.818Z,15.70
2023-05-10T14:31:48.831Z,15.70
2023-05-10T14:34:16.056Z,15.90
2023-05-10T14:36:42.739Z,16.10
2023-05-10T14:39:11.329Z,16.40
2023-05-10T14:41:38.776Z,16.60
2023-05-10T14:44:05.935Z,16.80
2023-05-10T14:46:32.732Z,18.00
2023-05-10T14:48:59.944Z,19.40
2023-05-10T14:51:29.729Z,20.30
2023-05-10T14:53:56.567Z,21.00
2023-05-10T14:56:23.393Z,21.70
2023-05-10T14:58:50.732Z,22.20
2023-05-10T15:01:17.441Z,22.70
2023-05-10T15:03:44.579Z,22.70
2023-05-10T15:06:11.725Z,22.80
2023-05-10T15:08:38.375Z,23.10
2023-05-10T15:11:05.116Z,23.10
2023-05-10T15:13:31.708Z,23.00
2023-05-10T15:15:58.295Z,22.30
2023-05-10T15:18:25.373Z,21.10
2023-05-10T15:20:52.175Z,20.20
2023-05-10T15:23:19.011Z,19.80
2023-05-10T15:25:45.687Z,19.40
2023-05-10T15:28:12.447Z,19.20
2023-05-10T15:30:39.052Z,18.90
2023-05-10T15:33:06.097Z,18.90
2023-05-10T15:35:36.726Z,18.80
2023-05-10T15:38:03.373Z,19.70
2023-05-10T15:40:30.072Z,20.80
2023-05-10T15:42:56.795Z,22.20
2023-05-10T15:45:23.674Z,23.10
2023-05-10T15:47:50.420Z,23.80
2023-05-10T15:50:17.766Z,24.40
2023-05-10T15:52:44.559Z,25.20
2023-05-10T15:55:13.306Z,24.10
2023-05-10T15:57:41.024Z,23.40
2023-05-10T16:00:08.625Z,22.70
2023-05-10T16:02:35.650Z,21.80
2023-05-10T16:05:02.493Z,21.00
2023-05-10T16:07:29.167Z,20.50
2023-05-10T16:09:55.901Z,19.90
2023-05-10T16:12:22.554Z,19.50
2023-05-10T16:14:49.309Z,19.20
2023-05-10T16:17:16.240Z,18.90
2023-05-10T16:19:43.205Z,18.70
2023-05-10T16:22:10.000Z,18.50
2023-05-10T16:24:37.443Z,18.30
2023-05-10T16:27:04.355Z,18.10
2023-05-10T16:29:32.046Z,18.10
2023-05-10T16:31:58.719Z,17.80
2023-05-10T16:34:25.539Z,17.40
2023-05-10T16:36:52.396Z,17.20
2023-05-10T16:39:19.125Z,17.00
2023-05-10T16:41:45.974Z,16.90
2023-05-10T16:44:13.492Z,16.90
2023-05-10T16:46:40.771Z,16.80
2023-05-10T16:49:07.629Z,16.70
2023-05-10T16:51:34.277Z,16.70
2023-05-10T16:54:01.404Z,16.60
2023-05-10T16:56:28.052Z,16.50
2023-05-10T16:58:55.007Z,16.30
2023-05-10T17:01:23.264Z,16.10
2023-05-10T17:03:51.855Z,15.90
2023-05-10T17:06:18.801Z,15.70
2023-05-10T17:08:45.521Z,15.60
2023-05-10T17:11:12.217Z,15.30
2023-05-10T17:13:39.207Z,15.10
2023-05-10T17:16:06.030Z,15.00
2023-05-10T17:18:33.225Z,14.80
2023-05-10T17:20:59.868Z,14.70
2023-05-10T17:23:26.744Z,14.60
2023-05-10T17:25:54.147Z,14.40
2023-05-10T17:28:20.899Z,14.30
2023-05-10T17:30:48.357Z,14.10
2023-05-10T17:33:15.083Z,14.00
2023-05-10T17:35:44.740Z,13.90
2023-05-10T17:38:12.255Z,13.80
2023-05-10T17:40:42.050Z,13.80
2023-05-10T17:43:08.701Z,13.70
2023-05-10T17:45:35.399Z,13.60
2023-05-10T17:48:02.260Z,13.60
2023-05-10T17:50:28.928Z,13.50
2023-05-10T17:52:55.650Z,13.50
2023-05-10T17:55:22.401Z,13.50
2023-05-10T17:57:50.574Z,13.50
2023-05-10T18:00:18.810Z,13.50
2023-05-10T18:02:45.540Z,13.50
2023-05-10T18:05:12.290Z,13.50
2023-05-10T18:07:39.981Z,13.60
2023-05-10T18:10:07.112Z,13.60
2023-05-10T18:12:34.140Z,13.50
2023-05-10T18:15:00.885Z,13.60
2023-05-10T18:17:27.857Z,13.60
2023-05-10T18:19:54.610Z,13.60
2023-05-10T18:22:21.654Z,13.70
2023-05-10T18:24:48.567Z,13.70
2023-05-10T18:27:15.426Z,13.80
2023-05-10T18:29:42.349Z,13.90
2023-05-10T18:32:09.498Z,14.10
2023-05-10T18:34:36.257Z,14.20
2023-05-10T18:37:07.601Z,14.30
2023-05-10T18:39:34.938Z,14.30
2023-05-10T18:42:01.975Z,14.20
2023-05-10T18:44:29.072Z,14.20
2023-05-10T18:46:56.195Z,14.20
2023-05-10T18:49:23.258Z,14.30
2023-05-10T18:51:50.150Z,14.20
2023-05-10T18:54:17.235Z,14.20
2023-05-10T18:56:45.382Z,14.20
2023-05-10T18:59:13.029Z,14.20
2023-05-10T19:01:42.689Z,14.20
2023-05-10T19:04:09.534Z,14.20
2023-05-10T19:06:41.521Z,14.20
2023-05-10T19:09:08.957Z,14.20
2023-05-10T19:11:35.912Z,14.20
2023-05-10T19:14:02.669Z,14.20
2023-05-10T19:16:30.789Z,14.20
2023-05-10T19:18:58.251Z,14.10
2023-05-10T19:21:25.823Z,14.10
2023-05-10T19:23:53.783Z,14.10
2023-05-10T19:26:21.737Z,14.00
2023-05-10T19:28:50.491Z,14.00
2023-05-10T19:31:17.384Z,13.90
2023-05-10T19:33:44.093Z,13.90
2023-05-10T19:36:11.294Z,13.90
2023-05-10T19:38:38.188Z,13.80
2023-05-10T19:41:05.014Z,13.80
2023-05-10T19:43:34.247Z,13.80
2023-05-10T19:46:01.902Z,13.70
2023-05-10T19:48:28.868Z,13.70
2023-05-10T19:51:06.978Z,13.70
2023-05-10T19:53:35.425Z,13.70
2023-05-10T19:56:02.933Z,13.70
2023-05-10T19:58:29.843Z,13.70
2023-05-10T20:00:56.584Z,13.70
2023-05-10T20:03:23.448Z,13.70
2023-05-10T20:05:50.316Z,13.70
2023-05-10T20:08:17.141Z,13.70
2023-05-10T20:10:44.052Z,13.60
2023-05-10T20:13:10.843Z,13.60
2023-05-10T20:15:37.518Z,13.60
2023-05-10T20:18:04.420Z,13.60
2023-05-10T20:20:31.791Z,13.60
2023-05-10T20:22:59.043Z,13.60
2023-05-10T20:25:26.682Z,13.60
2023-05-10T20:27:53.431Z,13.50
2023-05-10T20:30:20.680Z,13.50
2023-05-10T20:32:48.091Z,13.40
2023-05-10T20:35:15.334Z,13.30
2023-05-10T20:37:42.046Z,13.20
2023-05-10T20:40:09.096Z,13.20
2023-05-10T20:42:35.967Z,13.10
2023-05-10T20:45:03.384Z,13.00
2023-05-10T20:47:30.677Z,12.90
2023-05-10T20:49:58.168Z,12.80
2023-05-10T20:52:24.962Z,12.90
2023-05-10T20:54:51.653Z,12.90
2023-05-10T20:57:18.355Z,12.90
2023-05-10T20:59:45.225Z,12.90
2023-05-10T21:02:12.581Z,13.00
2023-05-10T21:04:39.449Z,13.00
2023-05-10T21:07:06.124Z,12.90
2023-05-10T21:09:34.960Z,13.00
2023-05-10T21:12:03.284Z,12.90
2023-05-10T21:14:30.845Z,13.00
2023-05-10T21:16:57.870Z,13.00
2023-05-10T21:19:24.540Z,13.00
2023-05-10T21:21:51.244Z,12.90
2023-05-10T21:24:18.168Z,13.00
2023-05-10T21:26:45.295Z,12.90
2023-05-10T21:29:12.411Z,13.00
2023-05-10T21:31:39.292Z,12.90
2023-05-10T21:34:06.651Z,12.90
2023-05-10T21:36:33.575Z,12.90
2023-05-10T21:39:00.828Z,12.90
2023-05-10T21:41:28.319Z,12.90
2023-05-10T21:43:56.297Z,12.90
2023-05-10T21:46:23.480Z,12.90
2023-05-10T21:48:50.974Z,12.90
2023-05-10T21:51:17.824Z,12.80
2023-05-10T21:53:44.694Z,12.80
2023-05-10T21:56:11.661Z,12.70
2023-05-10T21:58:38.686Z,12.70
2023-05-10T22:01:05.456Z,12.60
2023-05-10T22:03:32.786Z,12.60
2023-05-10T22:05:59.582Z,12.50
2023-05-10T22:08:27.040Z,12.50
2023-05-10T22:10:53.953Z,12.50
2023-05-10T22:13:20.798Z,12.40
2023-05-10T22:15:47.622Z,12.40
2023-05-10T22:18:14.939Z,12.40
2023-05-10T22:20:44.152Z,12.30
2023-05-10T22:23:11.002Z,12.30
2023-05-10T22:25:37.757Z,12.20
2023-05-10T22:28:04.604Z,12.20
2023-05-10T22:30:33.075Z,12.20
2023-05-10T22:33:00.235Z,12.10
2023-05-10T22:35:26.966Z,12.10
2023-05-10T22:37:53.946Z,12.00
2023-05-10T22:40:20.735Z,12.00
2023-05-10T22:42:47.476Z,11.90
2023-05-10T22:45:14.474Z,11.90
2023-05-10T22:47:41.263Z,11.90
2023-05-10T22:50:08.510Z,11.80
2023-05-10T22:52:35.214Z,11.80
2023-05-10T22:55:02.149Z,11.80
2023-05-10T22:57:28.930Z,11.70
2023-05-10T22:59:55.693Z,11.70
2023-05-10T23:02:22.638Z,11.60
2023-05-10T23:04:49.466Z,11.60
2023-05-10T23:07:16.314Z,11.50
2023-05-10T23:09:43.071Z,11.50
2023-05-10T23:12:09.880Z,11.40
2023-05-10T23:14:37.250Z,11.40
2023-05-10T23:17:03.900Z,11.30
2023-05-10T23:19:30.991Z,11.30
2023-05-10T23:21:57.721Z,11.30
2023-05-10T23:24:24.570Z,11.20
2023-05-10T23:26:51.403Z,11.10
2023-05-10T23:29:18.194Z,11.10
2023-05-10T23:31:46.284Z,11.00
2023-05-10T23:34:14.293Z,10.90
2023-05-10T23:36:41.136Z,10.90
2023-05-10T23:39:08.636Z,10.80
2023-05-10T23:41:35.420Z,10.80
2023-05-10T23:44:05.050Z,10.80
2023-05-10T23:46:31.826Z,10.70
2023-05-10T23:48:59.211Z,10.70
2023-05-10T23:51:26.309Z,10.60
2023-05-10T23:53:53.237Z,10.60
2023-05-10T23:56:20.044Z,10.50
2023-05-10T23:58:46.810Z,10.50
